Time;durP1;ratioP1;P1;durP2;ratioP2;P2;SDS_P1;SDS_P2;PMS_P1;PMS_P2;Temp;Humidity;BMP_temperature;BMP_pressure;BME280_temperature;BME280_humidity;BME280_pressure;Samples;Min_cycle;Max_cycle;Signal;HPM_P1;HPM_P2
2023/09/27 00:01:21;;;;;;;;;;;;;;;;;;;;;
2023/09/27 00:04:37;;;;;;;8.20;4.20;;;;;;;10.48;84.78;96536.05;110739;1262;22277;-76
2023/09/27 00:08:02;;;;;;;6.90;4.00;;;;;;;10.55;84.16;96534.27;110703;1273;22137;-76
2023/09/27 00:11:15;;;;;;;6.20;3.70;;;;;;;10.53;84.15;96530.41;110594;1273;22979;-76
2023/09/27 00:15:07;;;;;;;7.80;4.10;;;;;;;10.49;83.97;96533.77;110485;1273;22296;-76
2023/09/27 00:18:45;;;;;;;7.20;3.70;;;;;;;10.39;83.51;96527.80;110485;1273;22173;-76
2023/09/27 00:21:56;;;;;;;;;;;;;;;;;;;;;
2023/09/27 00:29:06;;;;;;;4.90;3.50;;;;;;;10.39;84.42;96520.08;110564;1273;22188;-76
2023/09/27 00:35:44;;;;;;;;;;;;;;;10.45;84.80;96516.17;110669;1273;22244;-76
2023/09/27 00:50:34;;;;;;;5.30;3.10;;;;;;;10.45;82.80;96524.09;110659;1268;22248;-76
2023/09/27 00:53:59;;;;;;;5.30;2.80;;;;;;;10.16;83.09;96525.02;110557;1273;22338;-76
2023/09/27 00:57:38;;;;;;;;;;;;;;;;;;;;;
2023/09/27 01:01:11;;;;;;;6.90;4.00;;;;;;;10.08;83.33;96519.40;110721;1273;22772;-76
2023/09/27 01:04:51;;;;;;;12.90;5.30;;;;;;;10.03;84.75;96520.11;110740;1266;22294;-75
2023/09/27 01:08:12;;;;;;;7.00;4.30;;;;;;;10.11;84.61;96515.00;110664;1273;22962;-76
2023/09/27 01:15:33;;;;;;;6.30;4.30;;;;;;;10.10;85.23;96514.84;110727;1273;23003;-76
2023/09/27 01:19:22;;;;;;;10.10;4.60;;;;;;;10.00;84.10;96512.73;110543;1273;22369;-75
2023/09/27 01:23:12;;;;;;;7.40;4.40;;;;;;;9.93;84.44;96515.91;110602;1273;22281;-75
2023/09/27 01:30:07;;;;;;;8.50;4.90;;;;;;;9.82;84.90;96515.75;110640;1261;22250;-75
2023/09/27 01:33:56;;;;;;;9.00;4.20;;;;;;;9.73;84.10;96513.83;110630;1273;22189;-76
2023/09/27 01:41:26;;;;;;;;;;;;;;;;;;;;;
2023/09/27 01:45:16;;;;;;;9.70;4.10;;;;;;;9.46;85.32;96507.50;110508;1273;22271;-76
2023/09/27 01:49:05;;;;;;;6.00;3.70;;;;;;;9.41;85.13;96502.77;110591;1273;22919;-75
2023/09/27 01:52:55;;;;;;;7.60;3.80;;;;;;;9.45;85.93;96505.91;110562;1273;22192;-75
2023/09/27 01:56:44;;;;;;;7.70;3.90;;;;;;;9.51;85.93;96499.43;110591;1273;22275;-75
2023/09/27 02:00:33;;;;;;;6.10;3.60;;;;;;;9.66;86.06;96502.05;110553;1273;22137;-76
2023/09/27 02:04:14;;;;;;;;;;;;;;;;;;;;;
2023/09/27 02:08:05;;;;;;;7.20;3.50;;;;;;;9.85;85.02;96502.74;110567;1273;22844;-75
2023/09/27 02:11:29;;;;;;;;;;;;;;;;;;;;;
2023/09/27 02:18:58;;;;;;;8.30;3.90;;;;;;;9.90;84.70;96491.14;110526;1273;22119;-75
2023/09/27 02:22:49;;;;;;;6.30;3.80;;;;;;;9.86;84.56;96488.16;110869;1254;22129;-76
2023/09/27 02:33:57;;;;;;;;;;;;;;;;;;;;;
2023/09/27 02:37:46;;;;;;;9.80;4.20;;;;;;;10.06;84.64;96486.36;110662;1273;22137;-75
2023/09/27 02:41:35;;;;;;;8.50;4.90;;;;;;;10.12;84.46;96483.36;110549;1273;22131;-75
2023/09/27 02:44:38;;;;;;;;;;;;;;;;;;;;;
2023/09/27 02:48:29;;;;;;;8.50;4.90;;;;;;;9.91;83.31;96484.64;110629;1273;22115;-75
2023/09/27 02:52:11;;;;;;;6.70;5.00;;;;;;;9.79;84.32;96483.59;110604;1273;22195;-76
2023/09/27 02:55:52;;;;;;;13.10;5.50;;;;;;;9.69;83.15;96477.11;110721;1273;22279;-76
2023/09/27 02:59:23;;;;;;;7.40;4.60;;;;;;;9.51;84.26;96476.95;110488;1273;22126;-76
2023/09/27 03:02:49;;;;;;;;;;;;;;;;;;;;;
2023/09/27 03:06:33;;;;;;;7.30;5.20;;;;;;;9.38;85.31;96476.61;110719;1273;22132;-76
2023/09/27 03:10:16;;;;;;;7.40;5.30;;;;;;;9.38;85.60;96474.67;110522;1273;22182;-75
2023/09/27 03:14:05;;;;;;;7.20;5.70;;;;;;;9.35;85.80;96479.41;110562;1273;22186;-76
2023/09/27 03:17:45;;;;;;;12.10;5.30;;;;;;;9.33;85.66;96479.92;110633;1273;22205;-76
2023/09/27 03:21:34;;;;;;;9.10;5.20;;;;;;;9.21;86.42;96477.63;110573;1273;22601;-76
2023/09/27 03:28:45;;;;;;;;;;;;;;;;;;;;;
2023/09/27 03:32:35;;;;;;;7.20;4.70;;;;;;;8.96;85.29;96485.33;110494;1275;22133;-76
2023/09/27 03:36:24;;;;;;;8.10;4.40;;;;;;;9.00;86.27;96486.21;110413;1275;22293;-76
2023/09/27 03:40:03;;;;;;;4.80;4.00;;;;;;;9.11;86.41;96477.63;110361;1275;22147;-75
2023/09/27 03:43:34;;;;;;;6.40;3.60;;;;;;;9.15;86.71;96475.89;110469;1273;22158;-75
2023/09/27 03:50:53;;;;;;;9.50;4.10;;;;;;;9.26;86.33;96470.10;110507;1275;22224;-75
2023/09/27 03:54:43;;;;;;;5.50;3.70;;;;;;;9.35;86.11;96471.33;110337;1275;22181;-75
2023/09/27 03:58:22;;;;;;;;;;;;;;;;;;;;;
2023/09/27 04:01:54;;;;;;;10.90;4.10;;;;;;;9.32;86.01;96474.30;110554;1275;22912;-74
2023/09/27 04:05:28;;;;;;;8.50;3.80;;;;;;;9.34;85.99;96472.20;110470;1275;22827;-75
2023/09/27 04:08:59;;;;;;;;;;;;;;;;;;;;;
2023/09/27 04:12:25;;;;;;;7.10;4.40;;;;;;;9.38;85.36;96466.60;110536;1263;22169;-75
2023/09/27 04:19:49;;;;;;;5.60;3.90;;;;;;;9.22;84.87;96467.63;110372;1275;22156;-75
2023/09/27 04:23:38;;;;;;;5.60;4.20;;;;;;;9.30;85.34;96468.70;110394;1275;22293;-75
2023/09/27 04:31:09;;;;;;;;;;;;;;;;;;;;;
2023/09/27 04:34:42;;;;;;;5.80;3.70;;;;;;;9.36;85.24;96479.92;110710;1273;23037;-75
2023/09/27 04:38:30;;;;;;;10.80;4.70;;;;;;;9.42;85.20;96483.61;110570;1273;22175;-75
2023/09/27 04:42:19;;;;;;;9.20;4.80;;;;;;;9.40;84.89;96482.75;110694;1273;22227;-75
2023/09/27 04:49:39;;;;;;;;;;;;;;;;;;;;;
2023/09/27 04:53:30;;;;;;;7.10;4.20;;;;;;;9.37;85.70;96483.79;110746;1273;22155;-74
2023/09/27 04:57:06;;;;;;;6.00;4.30;;;;;;;9.35;85.73;96484.50;110586;1273;22160;-74
2023/09/27 05:00:55;;;;;;;6.80;4.20;;;;;;;9.36;85.91;96486.08;110726;1273;22219;-74
2023/09/27 05:04:37;;;;;;;8.30;4.90;;;;;;;9.37;86.63;96489.23;110561;1273;23166;-73
2023/09/27 05:08:01;;;;;;;;;;;;;;;;;;;;;
2023/09/27 05:11:31;;;;;;;6.30;4.50;;;;;;;9.47;86.90;96488.02;110727;1273;22125;-73
2023/09/27 05:15:16;;;;;;;4.60;4.00;;;;;;;9.53;86.50;96485.73;110671;1273;22138;-74
2023/09/27 05:19:04;;;;;;;10.60;5.10;;;;;;;9.57;86.44;96483.97;110508;1273;22131;-74
2023/09/27 05:23:01;;;;;;;6.20;4.20;;;;;;;9.65;87.00;96483.27;110753;1266;23252;-74
2023/09/27 05:26:17;;;;;;;8.10;4.20;;;;;;;9.81;87.41;96484.30;110562;1274;22480;-76
2023/09/27 05:30:07;;;;;;;7.40;3.70;;;;;;;9.97;86.94;96484.98;110466;1274;22386;-74
2023/09/27 05:33:55;;;;;;;6.00;4.20;;;;;;;10.10;87.61;96483.19;110471;1274;22178;-74
2023/09/27 05:37:34;;;;;;;8.20;4.10;;;;;;;10.29;86.74;96482.81;110596;1275;22744;-73
2023/09/27 05:41:17;;;;;;;8.40;3.90;;;;;;;10.46;87.05;96481.52;106263;1274;5458010;-74
2023/09/27 05:44:55;;;;;;;;;;;;;;;;;;;;;
2023/09/27 05:48:30;;;;;;;12.00;5.40;;;;;;;10.86;86.14;96483.63;110574;1274;22108;-74
2023/09/27 05:52:34;;;;;;;5.20;4.10;;;;;;;10.98;85.49;96487.09;110577;1274;22216;-74
2023/09/27 05:55:38;;;;;;;7.80;4.30;;;;;;;11.17;86.41;96484.85;110396;1274;22144;-74
2023/09/27 05:58:40;;;;;;;8.10;4.30;;;;;;;11.38;85.74;96483.82;110558;1274;22284;-73
2023/09/27 06:02:20;;;;;;;10.70;4.00;;;;;;;11.53;85.24;96481.58;110607;1270;22831;-74
2023/09/27 06:05:48;;;;;;;9.20;3.90;;;;;;;11.70;85.38;96488.31;110522;1274;22123;-76
2023/09/27 06:08:52;;;;;;;7.20;4.90;;;;;;;11.85;84.00;96482.36;110442;1274;22094;-75
2023/09/27 06:12:07;;;;;;;;;;;;;;;;;;;;;
2023/09/27 06:15:40;;;;;;;;;;;;;;;;;;;;;
2023/09/27 06:18:56;;;;;;;;;;;;;;;;;;;;;
2023/09/27 06:22:06;;;;;;;8.20;4.70;;;;;;;12.58;83.78;96500.31;110559;1274;22285;-73
2023/09/27 06:24:56;;;;;;;9.30;5.30;;;;;;;12.64;82.62;96494.06;110684;1273;22407;-73
2023/09/27 06:27:42;;;;;;;8.30;5.10;;;;;;;12.72;82.42;96495.39;110518;1271;22171;-73
2023/09/27 06:30:23;;;;;;;6.70;5.10;;;;;;;12.81;82.68;96495.45;110701;1273;22227;-73
2023/09/27 06:33:18;;;;;;;5.80;5.00;;;;;;;12.92;83.38;96499.20;110575;1273;22148;-73
2023/09/27 06:35:49;;;;;;;8.90;5.20;;;;;;;13.06;83.44;96493.18;110720;1266;22309;-74
2023/09/27 06:38:21;;;;;;;9.20;5.10;;;;;;;13.18;83.24;96489.82;110656;1267;23127;-75
2023/09/27 06:41:01;;;;;;;11.80;5.30;;;;;;;13.30;83.31;96494.09;110702;1273;22126;-74
2023/09/27 06:43:41;;;;;;;10.40;5.20;;;;;;;13.42;82.76;96490.20;110738;1273;22107;-75
2023/09/27 06:46:12;;;;;;;8.10;4.80;;;;;;;13.55;82.13;96491.77;110738;1273;22449;-74
2023/09/27 06:48:54;;;;;;;6.00;4.60;;;;;;;13.68;82.00;96491.56;110696;1273;22130;-74
2023/09/27 06:51:49;;;;;;;8.10;4.40;;;;;;;13.83;81.98;96487.79;110749;1273;22157;-75
2023/09/27 06:54:25;;;;;;;10.60;4.50;;;;;;;14.05;82.31;96493.58;110725;1273;22414;-74
2023/09/27 06:56:58;;;;;;;13.60;4.30;;;;;;;14.31;82.17;96489.21;110566;1273;22154;-75
2023/09/27 06:59:31;;;;;;;10.60;4.40;;;;;;;14.56;81.77;96487.86;110742;1273;22112;-74
2023/09/27 07:02:03;;;;;;;7.30;4.20;;;;;;;14.82;81.58;96490.19;110719;1273;23033;-75
2023/09/27 07:04:31;;;;;;;6.20;4.30;;;;;;;15.04;80.67;96487.58;110733;1273;22187;-75
2023/09/27 07:06:59;;;;;;;8.40;4.10;;;;;;;15.28;80.73;96485.46;110692;1273;22388;-75
2023/09/27 07:09:34;;;;;;;7.70;3.90;;;;;;;15.52;79.14;96482.94;110730;1273;22202;-75
2023/09/27 07:12:03;;;;;;;14.40;4.70;;;;;;;15.74;78.98;96485.64;110722;1273;23045;-74
2023/09/27 07:14:32;;;;;;;7.50;4.80;;;;;;;15.90;78.29;96486.30;110728;1273;22113;-75
2023/09/27 07:17:15;;;;;;;10.70;4.90;;;;;;;16.00;77.91;96486.41;110694;1273;23077;-75
2023/09/27 07:19:43;;;;;;;;;;;;;;;16.16;77.88;96486.35;110587;1273;23115;-76
2023/09/27 07:22:15;;;;;;;9.10;4.90;;;;;;;16.28;77.40;96485.15;110684;1273;22223;-74
2023/09/27 07:24:43;;;;;;;7.50;4.80;;;;;;;16.40;76.36;96486.58;110727;1273;22211;-74
2023/09/27 07:27:12;;;;;;;10.40;4.80;;;;;;;16.50;74.44;96485.62;110728;1273;22364;-75
2023/09/27 07:29:41;;;;;;;10.40;5.00;;;;;;;16.61;74.11;96484.94;110708;1273;22340;-74
2023/09/27 07:32:10;;;;;;;10.70;4.80;;;;;;;16.73;73.63;96486.92;110719;1273;22250;-76
2023/09/27 07:34:38;;;;;;;10.40;4.90;;;;;;;16.83;71.96;96485.58;110704;1273;22176;-76
2023/09/27 07:37:09;;;;;;;7.40;4.80;;;;;;;16.96;70.08;96486.44;110564;1267;22361;-75
2023/09/27 07:39:38;;;;;;;8.60;4.90;;;;;;;17.12;70.32;96482.42;110429;1274;22903;-77
2023/09/27 07:42:06;;;;;;;8.70;5.30;;;;;;;17.26;67.61;96481.64;110606;1273;22152;-75
2023/09/27 07:44:34;;;;;;;9.20;5.10;;;;;;;17.42;67.96;96482.02;110747;1273;22198;-75
2023/09/27 07:47:03;;;;;;;9.60;4.90;;;;;;;17.60;68.39;96478.29;110605;1273;22171;-76
2023/09/27 07:49:31;;;;;;;8.10;4.70;;;;;;;17.74;67.24;96483.67;110739;1273;22271;-75
2023/09/27 07:51:59;;;;;;;8.30;4.90;;;;;;;17.92;66.93;96480.45;110545;1273;22189;-78
2023/09/27 07:54:28;;;;;;;8.90;4.80;;;;;;;18.09;65.71;96481.13;110637;1263;22292;-76
2023/09/27 07:56:57;;;;;;;6.30;4.70;;;;;;;18.27;66.01;96478.55;110740;1273;22149;-75
2023/09/27 07:59:25;;;;;;;7.80;4.80;;;;;;;18.47;66.90;96478.38;110631;1273;22863;-75
2023/09/27 08:01:54;;;;;;;11.40;4.80;;;;;;;18.64;65.44;96478.13;110591;1273;22125;-74
2023/09/27 08:04:22;;;;;;;9.60;4.90;;;;;;;18.80;65.60;96477.92;110551;1273;22606;-76
2023/09/27 08:06:50;;;;;;;9.90;4.90;;;;;;;18.98;66.02;96476.55;110561;1273;22114;-75
2023/09/27 08:09:21;;;;;;;8.60;5.10;;;;;;;19.16;65.51;96473.39;110701;1273;22209;-75
2023/09/27 08:12:07;;;;;;;10.50;4.40;;;;;;;19.35;64.24;96469.60;110717;1273;22182;-77
2023/09/27 08:14:36;;;;;;;11.60;4.40;;;;;;;19.49;62.56;96466.89;110584;1273;22205;-75
2023/09/27 08:17:04;;;;;;;7.60;4.80;;;;;;;19.60;60.46;96467.36;110593;1273;22124;-75
2023/09/27 08:19:33;;;;;;;7.30;4.50;;;;;;;19.70;57.38;96468.42;110708;1273;22717;-75
2023/09/27 08:22:01;;;;;;;10.50;4.90;;;;;;;19.81;58.70;96467.42;110708;1273;22203;-75
2023/09/27 08:24:29;;;;;;;7.30;4.40;;;;;;;19.93;59.26;96470.13;110678;1273;22777;-74
2023/09/27 08:27:00;;;;;;;9.40;4.80;;;;;;;20.04;58.13;96467.02;110688;1273;23019;-75
2023/09/27 08:29:28;;;;;;;9.10;5.00;;;;;;;20.15;58.76;96472.80;110480;1273;22224;-75
2023/09/27 08:31:56;;;;;;;11.50;5.30;;;;;;;20.26;57.89;96474.11;110685;1273;22252;-76
2023/09/27 08:34:26;;;;;;;8.60;4.50;;;;;;;20.33;56.10;96474.71;110565;1273;22675;-75
2023/09/27 08:36:54;;;;;;;9.50;5.10;;;;;;;20.39;55.82;96473.39;110697;1273;22189;-75
2023/09/27 08:39:22;;;;;;;11.70;4.90;;;;;;;20.51;55.03;96473.73;110713;1273;22312;-75
2023/09/27 08:41:50;;;;;;;11.40;5.00;;;;;;;20.64;56.49;96474.29;110696;1273;22190;-76
2023/09/27 08:44:19;;;;;;;9.50;5.00;;;;;;;20.78;55.98;96473.82;110724;1273;22343;-74
2023/09/27 08:46:48;;;;;;;8.70;4.90;;;;;;;20.91;54.82;96467.86;110711;1273;22177;-74
2023/09/27 08:49:17;;;;;;;12.60;5.10;;;;;;;21.02;53.61;96462.71;110681;1273;22167;-75
2023/09/27 08:51:46;;;;;;;6.20;4.90;;;;;;;21.15;53.82;96464.83;110564;1273;22155;-76
2023/09/27 08:54:17;;;;;;;9.70;5.00;;;;;;;21.23;51.99;96464.98;110562;1263;22177;-76
2023/09/27 08:56:51;;;;;;;6.80;4.80;;;;;;;21.28;50.79;96465.63;110704;1273;23044;-75
2023/09/27 08:59:20;;;;;;;8.60;5.00;;;;;;;21.40;52.25;96462.77;110574;1273;22973;-75
2023/09/27 09:01:52;;;;;;;10.10;4.90;;;;;;;21.50;50.35;96461.95;110722;1273;22397;-76
2023/09/27 09:04:22;;;;;;;9.90;5.00;;;;;;;21.46;49.75;96457.84;110573;1273;22912;-75
2023/09/27 09:06:53;;;;;;;6.30;5.10;;;;;;;21.53;51.07;96454.59;110735;1273;22205;-76
2023/09/27 09:09:25;;;;;;;7.10;4.90;;;;;;;21.64;50.16;96451.60;110716;1273;22210;-76
2023/09/27 09:11:58;;;;;;;10.40;5.20;;;;;;;21.73;49.95;96453.13;110701;1266;22211;-75
2023/09/27 09:14:43;;;;;;;8.10;4.80;;;;;;;21.80;49.51;96447.04;110613;1273;23008;-76
2023/09/27 09:17:17;;;;;;;7.00;4.80;;;;;;;21.92;49.49;96449.32;110718;1273;22298;-76
2023/09/27 09:20:16;;;;;;;10.90;4.90;;;;;;;21.99;49.18;96446.26;110712;1273;22989;-77
2023/09/27 09:22:45;;;;;;;9.80;5.20;;;;;;;22.02;48.26;96443.63;110556;1273;22304;-76
2023/09/27 09:25:14;;;;;;;9.20;4.50;;;;;;;22.14;48.49;96446.97;110729;1273;22185;-76
2023/09/27 09:27:43;;;;;;;8.80;5.50;;;;;;;22.23;48.65;96434.70;110717;1266;22150;-76
2023/09/27 09:30:13;;;;;;;8.10;4.90;;;;;;;22.41;49.21;96431.98;110720;1273;23164;-77
2023/09/27 09:32:49;;;;;;;8.30;4.70;;;;;;;22.53;47.83;96423.61;110703;1273;22135;-77
2023/09/27 09:35:34;;;;;;;8.10;4.80;;;;;;;22.71;48.81;96422.13;110603;1273;23000;-77
2023/09/27 09:38:03;;;;;;;10.30;5.00;;;;;;;22.88;48.70;96424.27;110694;1273;22902;-78
2023/09/27 09:40:31;;;;;;;6.20;4.30;;;;;;;23.00;48.81;96422.55;110706;1273;22136;-77
2023/09/27 09:43:00;;;;;;;9.60;4.20;;;;;;;23.13;46.65;96418.09;110706;1273;22177;-78
2023/09/27 09:45:28;;;;;;;10.30;4.40;;;;;;;23.25;46.60;96414.39;110702;1273;22910;-77
2023/09/27 09:47:57;;;;;;;9.60;4.90;;;;;;;23.28;43.02;96409.88;110579;1273;22861;-77
2023/09/27 09:50:29;;;;;;;10.30;5.10;;;;;;;23.34;44.72;96410.09;110629;1273;22199;-76
2023/09/27 09:52:58;;;;;;;11.10;4.90;;;;;;;23.49;44.08;96411.20;110716;1273;23003;-77
2023/09/27 09:55:31;;;;;;;8.70;4.40;;;;;;;23.64;43.65;96409.50;110629;1273;22120;-77
2023/09/27 09:58:37;;;;;;;13.80;4.60;;;;;;;23.75;43.54;96402.23;110606;1273;22239;-77
2023/09/27 10:01:10;;;;;;;7.30;4.60;;;;;;;23.86;43.16;96406.64;110709;1273;22936;-76
2023/09/27 10:03:47;;;;;;;9.40;4.90;;;;;;;23.89;41.93;96401.23;110599;1273;22861;-78
2023/09/27 10:06:19;;;;;;;11.40;4.70;;;;;;;23.98;42.64;96404.80;110702;1273;22154;-76
2023/09/27 10:09:12;;;;;;;6.40;4.60;;;;;;;24.04;42.12;96397.65;110710;1273;22155;-76
2023/09/27 10:11:46;;;;;;;6.40;5.10;;;;;;;24.10;43.38;96401.98;110699;1273;22130;-77
2023/09/27 10:14:18;;;;;;;7.20;4.60;;;;;;;24.22;44.16;96398.93;110611;1273;22146;-77
2023/09/27 10:16:48;;;;;;;7.50;4.40;;;;;;;24.35;44.15;96395.80;110679;1273;22175;-78
2023/09/27 10:19:26;;;;;;;11.30;4.90;;;;;;;24.43;42.32;96396.05;110590;1273;22589;-77
2023/09/27 10:22:04;;;;;;;12.60;4.70;;;;;;;24.44;42.27;96394.01;110704;1273;22185;-76
2023/09/27 10:24:37;;;;;;;10.60;4.50;;;;;;;24.48;41.85;96383.74;110622;1273;22275;-77
2023/09/27 10:27:05;;;;;;;8.80;4.70;;;;;;;24.59;42.88;96382.29;110700;1273;22595;-77
2023/09/27 10:29:57;;;;;;;10.00;4.80;;;;;;;24.70;43.01;96377.48;110737;1269;22146;-77
2023/09/27 10:32:26;;;;;;;8.60;4.40;;;;;;;24.78;43.14;96378.61;110573;1273;22149;-77
2023/09/27 10:34:56;;;;;;;9.60;4.60;;;;;;;24.85;43.80;96379.59;110573;1273;22170;-76
2023/09/27 10:37:59;;;;;;;17.00;4.80;;;;;;;25.00;43.35;96371.98;110598;1273;22132;-77
2023/09/27 10:40:27;;;;;;;7.30;4.50;;;;;;;25.16;41.62;96369.95;110559;1273;22134;-77
2023/09/27 10:42:55;;;;;;;10.30;4.30;;;;;;;25.31;42.14;96370.25;110593;1273;22137;-77
2023/09/27 10:45:24;;;;;;;7.10;4.40;;;;;;;25.70;41.95;96364.80;110707;1269;22211;-77
2023/09/27 10:47:54;;;;;;;9.80;4.40;;;;;;;26.09;40.10;96364.70;110631;1273;22209;-75
2023/09/27 10:50:27;;;;;;;5.90;4.50;;;;;;;26.32;36.24;96357.91;110608;1273;23126;-75
2023/09/27 10:52:57;;;;;;;10.50;4.40;;;;;;;26.61;37.79;96351.77;110610;1273;23056;-75
2023/09/27 10:55:25;;;;;;;8.30;4.30;;;;;;;27.00;38.07;96351.65;110688;1273;22304;-75
2023/09/27 10:57:53;;;;;;;9.00;3.90;;;;;;;27.40;37.09;96350.58;110721;1273;22516;-75
2023/09/27 11:00:21;;;;;;;7.50;3.90;;;;;;;27.79;35.76;96350.45;110694;1273;23085;-75
2023/09/27 11:02:50;;;;;;;9.00;4.20;;;;;;;28.09;34.08;96346.73;110683;1273;22140;-76
2023/09/27 11:05:24;;;;;;;5.90;3.90;;;;;;;28.31;33.78;96340.11;110660;1273;22165;-76
2023/09/27 11:07:53;;;;;;;7.70;4.00;;;;;;;28.70;34.27;96340.50;110677;1273;22133;-76
2023/09/27 11:10:48;;;;;;;6.80;3.60;;;;;;;28.84;31.03;96337.98;110669;1273;22271;-76
2023/09/27 11:13:17;;;;;;;7.20;3.70;;;;;;;28.90;31.30;96335.30;110540;1273;22128;-76
2023/09/27 11:15:45;;;;;;;10.90;4.60;;;;;;;28.99;30.15;96335.36;110711;1273;22208;-77
2023/09/27 11:18:13;;;;;;;8.20;3.60;;;;;;;28.91;29.78;96330.68;110692;1273;22203;-76
2023/09/27 11:20:42;;;;;;;10.70;4.00;;;;;;;29.21;30.41;96329.96;110716;1273;22317;-76
2023/09/27 11:23:10;;;;;;;7.70;3.70;;;;;;;29.54;30.12;96324.55;110673;1273;22122;-76
2023/09/27 11:25:41;;;;;;;10.00;3.80;;;;;;;29.78;29.80;96323.48;110691;1273;22871;-76
2023/09/27 11:28:17;;;;;;;10.80;3.50;;;;;;;30.00;28.88;96318.89;110556;1273;22102;-76
2023/09/27 11:30:55;;;;;;;7.70;4.00;;;;;;;30.05;29.45;96326.80;110450;1273;22117;-77
2023/09/27 11:33:30;;;;;;;10.20;3.80;;;;;;;30.12;27.96;96324.35;110705;1273;22855;-76
2023/09/27 11:36:03;;;;;;;10.50;4.30;;;;;;;29.84;27.62;96319.52;110697;1273;22113;-76
2023/09/27 11:38:31;;;;;;;8.60;4.10;;;;;;;29.92;27.99;96318.07;110711;1273;22813;-76
2023/09/27 11:41:06;;;;;;;8.50;3.80;;;;;;;30.03;28.10;96320.09;110686;1273;22140;-76
2023/09/27 11:43:34;;;;;;;6.90;3.60;;;;;;;30.19;27.19;96316.87;110688;1273;22176;-76
2023/09/27 11:46:03;;;;;;;9.10;3.80;;;;;;;30.40;27.50;96314.23;110707;1273;22147;-75
2023/09/27 11:48:33;;;;;;;7.70;4.00;;;;;;;30.63;27.70;96308.02;110689;1273;22172;-76
2023/09/27 11:51:02;;;;;;;9.30;3.80;;;;;;;30.95;26.57;96307.44;110679;1273;22927;-76
2023/09/27 11:53:30;;;;;;;6.70;3.90;;;;;;;31.04;27.09;96311.33;110690;1273;22957;-76
2023/09/27 11:56:00;;;;;;;8.40;3.80;;;;;;;31.31;27.17;96308.02;110683;1273;22290;-78
2023/09/27 11:58:28;;;;;;;6.40;3.90;;;;;;;31.28;25.67;96306.96;110575;1273;22231;-76
2023/09/27 12:00:56;;;;;;;8.60;3.70;;;;;;;31.54;26.13;96306.88;110723;1273;22170;-75
2023/09/27 12:03:25;;;;;;;12.70;3.70;;;;;;;31.66;25.91;96304.08;110721;1273;22274;-77
2023/09/27 12:05:54;;;;;;;9.00;4.20;;;;;;;31.74;25.03;96298.85;110690;1273;22854;-76
2023/09/27 12:08:23;;;;;;;7.40;3.70;;;;;;;31.31;25.17;96296.04;110680;1273;22135;-77
2023/09/27 12:10:51;;;;;;;9.10;4.00;;;;;;;31.54;26.30;96294.09;110689;1273;22194;-76
2023/09/27 12:13:19;;;;;;;7.40;3.70;;;;;;;31.98;26.57;96299.20;110671;1273;22180;-77
2023/09/27 12:15:47;;;;;;;7.00;3.40;;;;;;;32.22;24.38;96290.37;110581;1273;22137;-76
2023/09/27 12:18:15;;;;;;;9.80;3.60;;;;;;;32.10;24.28;96294.02;110586;1273;22128;-76
2023/09/27 12:20:44;;;;;;;11.40;4.40;;;;;;;32.14;24.38;96288.73;110700;1273;22311;-76
2023/09/27 12:23:17;;;;;;;6.70;4.10;;;;;;;32.22;23.82;96286.34;110671;1273;22589;-76
2023/09/27 12:25:45;;;;;;;8.00;3.70;;;;;;;32.29;24.70;96288.80;110685;1273;22210;-76
2023/09/27 12:28:17;;;;;;;9.40;3.70;;;;;;;32.32;23.34;96289.92;110632;1273;22181;-77
2023/09/27 12:30:45;;;;;;;7.80;4.10;;;;;;;32.25;23.49;96286.98;110722;1273;22258;-77
2023/09/27 12:33:13;;;;;;;7.80;3.50;;;;;;;32.17;23.83;96284.79;110674;1273;22115;-76
2023/09/27 12:35:43;;;;;;;6.80;3.50;;;;;;;32.26;24.00;96283.62;110695;1260;22276;-75
2023/09/27 12:38:11;;;;;;;5.60;3.10;;;;;;;32.33;24.05;96284.77;110703;1273;22248;-76
2023/09/27 12:40:40;;;;;;;8.30;3.90;;;;;;;32.30;23.67;96283.60;110663;1273;22174;-76
2023/09/27 12:43:08;;;;;;;6.70;3.50;;;;;;;32.48;23.12;96279.73;110695;1273;22131;-75
2023/09/27 12:45:39;;;;;;;9.10;3.70;;;;;;;32.73;23.43;96278.02;110681;1273;22137;-76
2023/09/27 12:48:08;;;;;;;7.00;3.40;;;;;;;32.96;23.44;96274.71;110685;1273;22808;-76
2023/09/27 12:50:40;;;;;;;8.60;3.50;;;;;;;33.22;24.09;96273.67;110688;1273;22182;-76
2023/09/27 12:53:09;;;;;;;8.10;3.70;;;;;;;33.48;23.98;96280.75;110680;1273;22123;-76
2023/09/27 12:55:42;;;;;;;12.70;3.40;;;;;;;33.52;22.72;96280.19;110663;1273;22153;-76
2023/09/27 12:58:13;;;;;;;5.90;3.50;;;;;;;33.66;22.79;96279.57;110697;1273;22846;-77
2023/09/27 13:00:41;;;;;;;4.40;3.70;;;;;;;33.86;22.06;96276.91;110555;1273;22129;-77
2023/09/27 13:03:10;;;;;;;5.90;3.50;;;;;;;33.78;22.26;96278.33;110610;1273;22132;-76
2023/09/27 13:05:38;;;;;;;10.70;3.50;;;;;;;33.51;21.16;96279.17;110691;1273;22189;-77
2023/09/27 13:08:07;;;;;;;10.10;3.60;;;;;;;33.00;21.60;96274.48;110703;1273;22201;-76
2023/09/27 13:10:35;;;;;;;8.20;3.70;;;;;;;32.96;22.49;96273.77;110687;1273;22931;-77
2023/09/27 13:13:03;;;;;;;4.70;3.00;;;;;;;33.14;22.11;96271.70;110695;1273;22116;-77
2023/09/27 13:15:34;;;;;;;7.00;3.30;;;;;;;33.11;21.39;96268.52;110697;1273;22855;-76
2023/09/27 13:18:03;;;;;;;7.50;3.30;;;;;;;32.72;21.28;96266.30;110694;1273;22144;-76
2023/09/27 13:20:31;;;;;;;7.80;3.40;;;;;;;32.63;22.33;96268.79;110684;1273;22846;-76
2023/09/27 13:23:00;;;;;;;7.70;4.00;;;;;;;32.72;22.51;96265.91;110666;1273;23003;-76
2023/09/27 13:25:28;;;;;;;9.40;3.10;;;;;;;32.62;21.92;96269.86;110567;1273;22190;-77
2023/09/27 13:27:56;;;;;;;6.30;3.50;;;;;;;32.59;21.51;96263.39;110548;1273;22098;-76
2023/09/27 13:30:24;;;;;;;7.70;3.70;;;;;;;32.77;22.52;96259.58;110696;1273;22863;-76
2023/09/27 13:33:03;;;;;;;11.30;5.10;;;;;;;33.02;22.21;96261.57;110696;1273;22125;-77
2023/09/27 13:35:32;;;;;;;10.70;6.60;;;;;;;33.12;22.75;96262.02;110680;1273;22289;-77
2023/09/27 13:38:07;;;;;;;;;;;;;;;33.34;21.51;96258.27;110714;1273;22243;-77
2023/09/27 13:40:35;;;;;;;10.70;4.30;;;;;;;33.08;21.51;96261.67;110678;1267;22592;-76
2023/09/27 13:43:04;;;;;;;6.60;3.60;;;;;;;33.11;22.52;96258.87;110676;1273;22886;-76
2023/09/27 13:45:34;;;;;;;6.80;3.60;;;;;;;33.21;22.34;96259.52;110574;1273;22175;-76
2023/09/27 13:48:03;;;;;;;7.70;3.60;;;;;;;33.40;22.13;96263.98;110674;1273;22193;-77
2023/09/27 13:50:33;;;;;;;9.40;3.70;;;;;;;33.31;21.12;96259.80;110725;1273;22861;-76
2023/09/27 13:53:02;;;;;;;9.50;3.90;;;;;;;33.06;21.27;96256.83;110714;1273;22121;-77
2023/09/27 13:55:31;;;;;;;6.40;3.10;;;;;;;32.45;21.43;96256.09;110722;1273;22196;-77
2023/09/27 13:57:59;;;;;;;9.30;3.60;;;;;;;32.23;21.58;96255.16;110698;1273;22984;-76
2023/09/27 14:00:27;;;;;;;7.50;3.60;;;;;;;31.86;21.99;96250.77;110698;1273;23044;-76
2023/09/27 14:02:56;;;;;;;8.10;3.50;;;;;;;31.19;23.23;96252.22;110692;1273;22114;-77
2023/09/27 14:05:24;;;;;;;7.80;3.30;;;;;;;30.22;23.91;96254.58;110692;1273;22333;-77
2023/09/27 14:07:53;;;;;;;6.90;3.60;;;;;;;29.26;24.63;96258.67;110737;1273;22955;-77
2023/09/27 14:10:21;;;;;;;4.40;3.50;;;;;;;28.50;26.07;96256.14;110539;1273;22212;-76
2023/09/27 14:12:50;;;;;;;9.90;4.20;;;;;;;28.20;26.66;96257.05;110677;1273;22117;-76
2023/09/27 14:15:19;;;;;;;8.50;3.80;;;;;;;27.98;26.79;96254.55;110693;1273;22127;-77
2023/09/27 14:17:47;;;;;;;6.00;3.70;;;;;;;27.67;27.40;96249.55;110694;1273;22943;-76
2023/09/27 14:20:15;;;;;;;12.50;3.70;;;;;;;27.69;27.70;96247.77;110704;1273;22109;-76
2023/09/27 14:22:46;;;;;;;10.50;3.90;;;;;;;27.46;28.53;96246.46;110694;1273;22165;-76
2023/09/27 14:25:14;;;;;;;9.70;3.90;;;;;;;26.91;28.56;96249.28;110677;1273;22196;-76
2023/09/27 14:27:42;;;;;;;10.00;4.00;;;;;;;26.40;29.22;96246.77;110719;1273;22112;-75
2023/09/27 14:30:11;;;;;;;7.70;4.00;;;;;;;25.91;30.18;96248.25;110728;1273;22116;-75
2023/09/27 14:32:41;;;;;;;5.50;3.90;;;;;;;25.45;30.85;96251.34;110706;1273;22272;-75
2023/09/27 14:35:11;;;;;;;5.90;4.10;;;;;;;25.17;32.10;96247.98;110704;1273;22163;-76
2023/09/27 14:37:41;;;;;;;12.80;4.80;;;;;;;24.87;31.71;96255.68;110544;1273;22188;-76
2023/09/27 14:40:09;;;;;;;8.30;4.00;;;;;;;24.58;32.25;96255.20;110731;1273;22228;-76
2023/09/27 14:42:39;;;;;;;10.70;4.20;;;;;;;24.42;32.65;96253.52;110698;1273;22343;-75
2023/09/27 14:45:08;;;;;;;19.20;4.40;;;;;;;24.38;32.82;96253.02;111224;1260;22171;-75